Time;durP1;ratioP1;P1;durP2;ratioP2;P2;SDS_P1;SDS_P2;PMS_P1;PMS_P2;Temp;Humidity;BMP_temperature;BMP_pressure;BME280_temperature;BME280_humidity;BME280_pressure;Samples;Min_cycle;Max_cycle;Signal;HPM_P1;HPM_P2
2023/05/23 00:00:41;;;;;;;24.55;12.18;;;13.20;99.90;;;;;;4994532;28;20030;-67
2023/05/23 00:03:07;;;;;;;23.58;10.13;;;13.10;99.90;;;;;;4993503;28;20053;-67
2023/05/23 00:05:33;;;;;;;34.50;12.50;;;13.10;99.90;;;;;;4987771;28;20054;-67
2023/05/23 00:08:00;;;;;;;30.20;12.63;;;13.10;99.90;;;;;;4987425;28;20038;-67
2023/05/23 00:10:26;;;;;;;38.97;13.45;;;13.10;99.90;;;;;;5002930;28;20058;-67
2023/05/23 00:12:52;;;;;;;47.65;16.08;;;13.10;99.90;;;;;;4993208;28;20361;-81
2023/05/23 00:15:18;;;;;;;32.70;14.37;;;13.00;99.90;;;;;;4992041;28;20046;-67
2023/05/23 00:17:44;;;;;;;37.83;15.73;;;13.00;99.90;;;;;;4993412;28;20018;-67
2023/05/23 00:20:13;;;;;;;35.60;13.70;;;13.00;99.90;;;;;;4987032;28;20374;-67
2023/05/23 00:22:41;;;;;;;25.88;10.07;;;13.00;99.90;;;;;;4985430;28;20062;-68
2023/05/23 00:25:08;;;;;;;21.05;9.65;;;12.90;99.90;;;;;;4993030;28;20460;-67
2023/05/23 00:27:35;;;;;;;24.00;10.20;;;12.90;99.90;;;;;;4992783;28;20105;-67
2023/05/23 00:30:01;;;;;;;35.30;12.35;;;12.90;99.90;;;;;;4993538;28;20061;-67
2023/05/23 00:32:27;;;;;;;17.13;8.27;;;12.90;99.90;;;;;;5005628;28;20101;-68
2023/05/23 00:34:53;;;;;;;15.47;6.47;;;12.80;99.90;;;;;;5002283;28;20157;-67
2023/05/23 00:37:21;;;;;;;14.95;5.75;;;12.80;99.90;;;;;;5001960;28;20052;-68
2023/05/23 00:39:47;;;;;;;16.30;6.97;;;12.90;99.90;;;;;;5003497;28;20034;-66
2023/05/23 00:42:13;;;;;;;12.88;7.13;;;12.90;99.90;;;;;;4996078;28;20038;-67
2023/05/23 00:44:39;;;;;;;17.07;6.73;;;13.00;99.90;;;;;;4997647;28;20034;-65
2023/05/23 00:47:07;;;;;;;17.27;6.70;;;12.90;99.90;;;;;;4994258;28;20037;-82
2023/05/23 00:49:33;;;;;;;15.73;7.18;;;12.90;99.90;;;;;;4996685;28;20034;-67
2023/05/23 00:51:59;;;;;;;14.02;5.97;;;12.90;99.90;;;;;;4997247;28;20030;-67
2023/05/23 00:54:30;;;;;;;16.03;7.50;;;12.90;99.90;;;;;;5006380;28;20034;-66
2023/05/23 00:56:57;;;;;;;20.10;7.38;;;13.00;99.90;;;;;;4988662;28;20034;-67
2023/05/23 00:59:24;;;;;;;20.83;7.18;;;13.00;99.90;;;;;;4995049;28;20121;-66
2023/05/23 01:01:51;;;;;;;17.48;7.35;;;13.00;99.90;;;;;;4996623;28;20061;-66
2023/05/23 01:04:18;;;;;;;;;;;12.90;99.90;;;;;;4987808;28;20105;-67
2023/05/23 01:06:45;;;;;;;11.10;6.22;;;13.00;99.90;;;;;;4990796;28;19916;-68
2023/05/23 01:09:19;;;;;;;13.45;6.05;;;13.00;99.90;;;;;;4985901;28;20034;-67
2023/05/23 01:11:48;;;;;;;11.93;5.97;;;13.00;99.90;;;;;;4992890;28;20026;-67
2023/05/23 01:14:20;;;;;;;12.48;5.43;;;12.90;99.90;;;;;;4995830;28;20034;-66
2023/05/23 01:16:59;;;;;;;12.18;6.03;;;12.90;99.90;;;;;;4994877;28;20038;-67
2023/05/23 01:19:50;;;;;;;14.20;6.32;;;12.90;99.90;;;;;;4995858;28;20291;-67
2023/05/23 01:23:00;;;;;;;12.48;5.95;;;12.90;99.90;;;;;;4997140;28;20021;-83
2023/05/23 01:25:45;;;;;;;12.80;4.85;;;12.90;99.90;;;;;;4983191;28;20066;-72
2023/05/23 01:28:17;;;;;;;8.70;5.30;;;12.90;99.90;;;;;;4990908;28;20030;-68
2023/05/23 01:30:45;;;;;;;12.90;6.40;;;12.90;99.90;;;;;;4996924;28;20026;-70
2023/05/23 01:33:14;;;;;;;12.40;6.57;;;13.00;99.90;;;;;;4989803;28;20045;-66
2023/05/23 01:35:42;;;;;;;22.73;8.48;;;12.90;99.90;;;;;;5011471;28;20076;-66
2023/05/23 01:38:08;;;;;;;24.85;7.93;;;12.90;99.90;;;;;;4995996;28;20035;-67
2023/05/23 01:40:34;;;;;;;21.17;7.80;;;12.80;99.90;;;;;;4990441;28;20330;-68
2023/05/23 01:42:59;;;;;;;26.97;9.20;;;12.80;99.90;;;;;;4986703;28;20319;-68
2023/05/23 01:45:27;;;;;;;22.90;7.37;;;12.80;99.90;;;;;;4979468;28;20058;-67
2023/05/23 01:47:53;;;;;;;30.42;9.13;;;12.80;99.90;;;;;;4990235;28;20469;-67
2023/05/23 01:50:19;;;;;;;18.30;6.72;;;12.80;99.90;;;;;;4993977;28;20026;-67
2023/05/23 01:52:49;;;;;;;22.05;7.05;;;12.80;99.90;;;;;;4996377;28;20430;-67
2023/05/23 01:55:21;;;;;;;21.02;6.95;;;12.80;99.90;;;;;;4994812;28;20042;-67
2023/05/23 01:57:49;;;;;;;20.35;7.72;;;12.80;99.90;;;;;;4993797;28;20030;-67
2023/05/23 02:00:15;;;;;;;19.80;6.78;;;12.70;99.90;;;;;;4995687;28;20116;-68
2023/05/23 02:02:41;;;;;;;15.98;7.43;;;12.70;99.90;;;;;;5011243;28;20023;-67
2023/05/23 02:05:09;;;;;;;17.23;7.37;;;12.70;99.90;;;;;;4993797;28;20436;-66
2023/05/23 02:07:35;;;;;;;17.17;6.93;;;12.80;99.90;;;;;;4999096;28;20080;-66
2023/05/23 02:10:00;;;;;;;15.33;6.23;;;12.80;99.90;;;;;;5002758;28;20031;-66
2023/05/23 02:12:26;;;;;;;22.00;7.77;;;12.90;99.90;;;;;;4997463;28;20018;-66
2023/05/23 02:14:53;;;;;;;20.13;6.97;;;12.90;99.90;;;;;;4994276;28;20026;-66
2023/05/23 02:17:23;;;;;;;14.45;5.75;;;13.00;99.90;;;;;;5007162;28;20298;-68
2023/05/23 02:19:48;;;;;;;18.00;6.95;;;12.90;99.90;;;;;;4995773;28;20026;-66
2023/05/23 02:22:14;;;;;;;26.50;9.03;;;12.90;99.90;;;;;;4993381;28;20041;-70
2023/05/23 02:24:40;;;;;;;21.10;7.50;;;12.90;99.90;;;;;;4993841;28;20333;-66
2023/05/23 02:27:06;;;;;;;19.10;6.77;;;13.00;99.90;;;;;;4989735;28;20085;-66
2023/05/23 02:29:32;;;;;;;16.97;6.87;;;12.90;99.90;;;;;;4994571;28;20030;-66
2023/05/23 02:31:57;;;;;;;23.23;7.63;;;12.90;99.90;;;;;;4994884;28;20484;-66
2023/05/23 02:34:23;;;;;;;23.47;7.40;;;12.90;99.90;;;;;;4995818;28;20022;-67
2023/05/23 02:36:50;;;;;;;25.90;8.43;;;12.70;99.90;;;;;;5001403;28;20342;-67
2023/05/23 02:39:16;;;;;;;;;;;12.70;99.90;;;;;;5001780;28;20318;-68
2023/05/23 02:41:41;;;;;;;32.07;7.17;;;12.70;99.90;;;;;;5004077;28;19906;-67
2023/05/23 02:44:07;;;;;;;19.23;6.10;;;12.70;99.90;;;;;;5016670;28;20066;-67
2023/05/23 02:46:32;;;;;;;18.30;6.67;;;12.60;99.90;;;;;;5001927;28;20052;-67
2023/05/23 02:48:58;;;;;;;22.30;7.70;;;12.60;99.90;;;;;;5001838;28;20076;-68
2023/05/23 02:51:24;;;;;;;21.27;7.33;;;12.60;99.90;;;;;;4994862;28;20104;-82
2023/05/23 02:53:49;;;;;;;18.57;7.17;;;12.60;99.90;;;;;;4982045;28;20023;-67
2023/05/23 02:56:15;;;;;;;19.57;6.77;;;12.60;99.90;;;;;;4985527;28;20015;-67
2023/05/23 02:58:41;;;;;;;17.23;6.63;;;12.60;99.90;;;;;;4990856;28;20484;-68
2023/05/23 03:01:10;;;;;;;20.50;6.37;;;12.50;99.90;;;;;;4985633;28;20034;-66
2023/05/23 03:03:36;;;;;;;18.67;6.25;;;12.50;99.90;;;;;;4994752;28;20045;-69
2023/05/23 03:06:03;;;;;;;16.33;5.30;;;12.50;99.90;;;;;;4995119;28;20034;-68
2023/05/23 03:08:29;;;;;;;20.50;8.18;;;12.50;99.90;;;;;;4992966;28;20497;-66
2023/05/23 03:10:55;;;;;;;23.53;6.50;;;12.60;99.90;;;;;;4994534;28;20129;-68
2023/05/23 03:13:21;;;;;;;16.73;4.80;;;12.50;99.90;;;;;;4993497;28;20046;-67
2023/05/23 03:15:47;;;;;;;33.53;7.45;;;12.50;99.90;;;;;;4993855;28;20129;-66
2023/05/23 03:18:12;;;;;;;17.13;6.03;;;12.50;99.90;;;;;;4993806;28;20130;-66
2023/05/23 03:20:38;;;;;;;9.80;2.97;;;12.60;99.90;;;;;;4992969;28;20041;-67
2023/05/23 03:23:04;;;;;;;23.47;6.63;;;12.50;99.90;;;;;;5001044;28;20350;-67
2023/05/23 03:25:30;;;;;;;20.67;5.07;;;12.50;99.90;;;;;;4992074;28;20030;-85
2023/05/23 03:27:55;;;;;;;13.83;5.23;;;12.50;99.90;;;;;;4991978;28;20291;-68
2023/05/23 03:30:21;;;;;;;15.63;5.03;;;12.50;99.90;;;;;;5010029;28;20161;-68
2023/05/23 03:32:47;;;;;;;15.40;4.80;;;12.40;99.90;;;;;;4995472;28;20049;-67
2023/05/23 03:35:13;;;;;;;14.03;4.80;;;12.40;99.90;;;;;;4992246;28;20030;-69
2023/05/23 03:37:38;;;;;;;5.60;2.53;;;12.40;99.90;;;;;;4993248;28;20096;-68
2023/05/23 03:40:06;;;;;;;13.00;3.77;;;12.30;99.90;;;;;;4993144;28;20307;-69
2023/05/23 03:42:31;;;;;;;9.73;3.95;;;12.30;99.90;;;;;;4995676;28;20041;-68
2023/05/23 03:44:57;;;;;;;16.53;4.77;;;12.30;99.90;;;;;;4994879;28;20117;-68
2023/05/23 03:47:23;;;;;;;12.40;4.03;;;12.30;99.90;;;;;;4994329;28;20062;-68
2023/05/23 03:49:49;;;;;;;6.73;2.30;;;12.20;99.90;;;;;;4993076;28;20034;-68
2023/05/23 03:52:15;;;;;;;11.40;3.53;;;12.20;99.90;;;;;;4993274;28;20038;-78
2023/05/23 03:54:40;;;;;;;8.70;3.80;;;12.20;99.90;;;;;;4994408;28;20038;-66
2023/05/23 03:57:06;;;;;;;11.23;3.47;;;12.20;99.90;;;;;;4993608;28;20101;-67
2023/05/23 03:59:33;;;;;;;8.85;3.63;;;12.10;99.90;;;;;;5007421;28;20056;-68
2023/05/23 04:01:59;;;;;;;10.18;4.15;;;12.10;99.90;;;;;;4992521;28;20058;-66
2023/05/23 04:04:26;;;;;;;13.60;3.70;;;12.10;99.90;;;;;;4994072;28;20036;-69
2023/05/23 04:06:52;;;;;;;11.73;3.65;;;12.10;99.90;;;;;;4993983;28;20037;-68
2023/05/23 04:09:17;;;;;;;13.93;3.63;;;12.10;99.90;;;;;;4998075;28;20027;-69
2023/05/23 04:11:43;;;;;;;9.00;3.37;;;12.10;99.90;;;;;;4997554;28;20037;-68
2023/05/23 04:14:09;;;;;;;13.93;3.17;;;12.10;99.90;;;;;;4997882;28;20034;-67
2023/05/23 04:16:36;;;;;;;8.20;2.97;;;12.00;99.90;;;;;;4997694;28;20334;-68
2023/05/23 04:19:06;;;;;;;10.93;3.38;;;12.00;99.90;;;;;;4997700;28;20029;-67
2023/05/23 04:21:32;;;;;;;8.73;4.25;;;11.90;99.90;;;;;;4994741;28;20414;-68
2023/05/23 04:23:59;;;;;;;7.10;3.50;;;11.90;99.90;;;;;;4995986;28;20072;-67
2023/05/23 04:26:25;;;;;;;11.50;2.83;;;11.80;99.90;;;;;;4997203;28;20425;-77
2023/05/23 04:28:53;;;;;;;10.33;3.77;;;11.70;99.90;;;;;;4996540;28;20037;-67
2023/05/23 04:31:21;;;;;;;7.55;3.40;;;11.70;99.90;;;;;;5012515;28;20429;-67
2023/05/23 04:33:48;;;;;;;15.38;4.40;;;11.70;99.90;;;;;;4997924;28;20287;-76
2023/05/23 04:36:14;;;;;;;13.10;3.13;;;11.70;99.90;;;;;;4987119;28;20104;-68
2023/05/23 04:38:41;;;;;;;4.80;2.80;;;11.70;99.90;;;;;;4986696;28;20411;-68
2023/05/23 04:41:12;;;;;;;;;;;11.70;99.90;;;;;;4978031;28;20018;-67
2023/05/23 04:43:41;;;;;;;4.55;2.00;;;11.60;99.90;;;;;;4995110;28;20301;-67
2023/05/23 04:46:09;;;;;;;19.67;3.70;;;11.70;99.90;;;;;;4988365;28;20050;-67
2023/05/23 04:48:35;;;;;;;12.77;3.38;;;11.60;99.90;;;;;;4992634;28;20030;-66
2023/05/23 04:51:05;;;;;;;7.30;4.07;;;11.60;99.90;;;;;;4988512;28;20030;-66
2023/05/23 04:53:30;;;;;;;13.68;4.72;;;11.60;99.90;;;;;;4995189;28;20026;-66
2023/05/23 04:55:56;;;;;;;13.60;4.17;;;11.60;99.90;;;;;;4996954;28;20026;-67
2023/05/23 04:58:22;;;;;;;10.33;3.33;;;11.50;99.90;;;;;;4997482;28;20306;-67
2023/05/23 05:00:47;;;;;;;7.57;3.30;;;11.50;99.90;;;;;;4991850;28;20039;-67
2023/05/23 05:03:13;;;;;;;11.90;4.07;;;11.50;99.90;;;;;;4997518;28;20036;-66
2023/05/23 05:05:39;;;;;;;10.83;4.63;;;11.50;99.90;;;;;;4999869;28;20034;-67
2023/05/23 05:08:05;;;;;;;10.77;3.87;;;11.50;99.90;;;;;;4989371;28;20035;-75
2023/05/23 05:10:30;;;;;;;25.63;5.40;;;11.50;99.90;;;;;;5011214;28;20129;-65
2023/05/23 05:12:56;;;;;;;8.70;4.50;;;11.50;99.90;;;;;;4998417;28;20030;-67
2023/05/23 05:15:22;;;;;;;23.27;5.50;;;11.60;99.90;;;;;;4997379;28;20050;-65
2023/05/23 05:17:48;;;;;;;12.73;4.27;;;11.60;99.90;;;;;;4995347;28;20047;-65
2023/05/23 05:20:14;;;;;;;15.03;4.03;;;11.60;99.90;;;;;;4986671;28;20038;-79
2023/05/23 05:22:39;;;;;;;11.37;3.57;;;11.60;99.90;;;;;;4991035;28;20041;-66
2023/05/23 05:25:09;;;;;;;15.07;4.60;;;11.50;99.90;;;;;;4986418;28;20042;-76
2023/05/23 05:27:36;;;;;;;16.40;5.53;;;11.50;99.90;;;;;;4990958;28;20034;-67
2023/05/23 05:30:07;;;;;;;15.77;5.78;;;11.50;99.90;;;;;;4984613;28;20077;-67
2023/05/23 05:32:33;;;;;;;15.45;4.70;;;11.40;99.90;;;;;;4986896;28;20034;-78
2023/05/23 05:35:00;;;;;;;12.70;4.57;;;11.50;99.90;;;;;;4986798;28;20323;-66
2023/05/23 05:37:25;;;;;;;16.60;5.18;;;11.40;99.90;;;;;;4984899;28;20236;-82
2023/05/23 05:39:53;;;;;;;14.87;5.10;;;11.40;99.90;;;;;;4985935;28;20033;-65
2023/05/23 05:42:19;;;;;;;11.40;3.40;;;11.40;99.90;;;;;;4986518;28;20029;-68
2023/05/23 05:44:45;;;;;;;11.60;4.38;;;11.40;99.90;;;;;;4992423;28;20026;-68
2023/05/23 05:47:12;;;;;;;20.75;4.82;;;11.40;99.90;;;;;;4988691;28;20030;-66
2023/05/23 05:49:37;;;;;;;16.50;5.13;;;11.30;99.90;;;;;;4982606;28;20362;-72
2023/05/23 05:52:03;;;;;;;14.17;4.77;;;11.40;99.90;;;;;;4985443;28;20043;-66
2023/05/23 05:54:29;;;;;;;11.43;3.85;;;11.40;99.90;;;;;;4989665;28;20129;-66
2023/05/23 05:56:55;;;;;;;6.47;2.00;;;11.40;99.90;;;;;;4991362;28;20449;-83
2023/05/23 05:59:20;;;;;;;12.20;4.47;;;11.50;99.90;;;;;;4988560;28;20022;-65
2023/05/23 06:01:46;;;;;;;14.57;4.60;;;11.60;99.90;;;;;;4987716;28;20045;-67
2023/05/23 06:04:13;;;;;;;17.50;4.83;;;11.50;99.90;;;;;;4992082;28;20354;-81
2023/05/23 06:06:39;;;;;;;17.77;5.18;;;11.50;99.90;;;;;;4988169;28;20032;-66
2023/05/23 06:09:04;;;;;;;23.17;5.67;;;11.50;99.90;;;;;;4985409;28;20133;-65
2023/05/23 06:11:31;;;;;;;15.03;5.10;;;11.40;99.90;;;;;;5003514;28;20373;-66
2023/05/23 06:13:56;;;;;;;14.25;5.57;;;11.50;99.90;;;;;;4985351;28;20061;-65
2023/05/23 06:16:23;;;;;;;11.77;4.63;;;11.50;99.90;;;;;;4989049;28;20517;-81
2023/05/23 06:18:49;;;;;;;13.35;3.65;;;11.50;99.90;;;;;;4990628;28;20050;-66
2023/05/23 06:21:14;;;;;;;12.53;5.40;;;11.50;99.90;;;;;;4985165;28;20069;-68
2023/05/23 06:23:40;;;;;;;22.27;5.03;;;11.50;99.90;;;;;;4987204;28;20022;-66
2023/05/23 06:26:09;;;;;;;5.57;2.57;;;11.40;99.90;;;;;;4990799;28;20054;-66
2023/05/23 06:28:38;;;;;;;22.35;3.55;;;11.40;99.90;;;;;;4990131;28;20066;-66
2023/05/23 06:31:04;;;;;;;12.90;2.47;;;11.30;99.90;;;;;;4995991;28;20578;-67
2023/05/23 06:33:30;;;;;;;6.87;2.53;;;11.30;99.90;;;;;;4988558;28;20473;-67
2023/05/23 06:35:56;;;;;;;12.38;2.88;;;11.20;99.90;;;;;;4994991;28;20315;-76
2023/05/23 06:38:22;;;;;;;9.03;2.47;;;11.20;99.90;;;;;;4999090;28;20058;-64
2023/05/23 06:40:48;;;;;;;6.60;1.38;;;11.30;99.90;;;;;;4999306;28;20053;-66
2023/05/23 06:43:13;;;;;;;5.77;1.33;;;11.30;99.90;;;;;;5007197;28;20121;-80
2023/05/23 06:45:39;;;;;;;9.30;3.03;;;11.40;99.90;;;;;;4997547;28;20026;-66
2023/05/23 06:48:05;;;;;;;7.10;1.40;;;11.50;99.90;;;;;;4990795;28;20057;-67
2023/05/23 06:50:31;;;;;;;12.40;2.83;;;11.50;99.90;;;;;;4994127;28;20435;-67
2023/05/23 06:52:56;;;;;;;6.60;2.03;;;11.60;99.90;;;;;;5001798;28;20018;-65
2023/05/23 06:55:23;;;;;;;7.20;1.63;;;11.80;99.90;;;;;;4990664;28;20093;-66
2023/05/23 06:57:51;;;;;;;6.70;2.03;;;11.90;99.90;;;;;;4992633;28;20473;-67
2023/05/23 07:00:18;;;;;;;8.25;2.15;;;11.80;99.90;;;;;;4990006;28;20034;-67
2023/05/23 07:02:45;;;;;;;2.72;1.05;;;11.90;99.90;;;;;;4994365;28;20026;-67
2023/05/23 07:05:11;;;;;;;16.60;2.33;;;12.00;99.90;;;;;;4997654;28;20326;-66
2023/05/23 07:07:36;;;;;;;9.90;2.03;;;11.90;99.90;;;;;;4990034;28;20037;-78
2023/05/23 07:10:02;;;;;;;8.37;2.33;;;11.90;99.90;;;;;;4999535;28;20284;-66
2023/05/23 07:12:28;;;;;;;9.27;2.73;;;11.90;99.90;;;;;;5008286;28;20052;-66
2023/05/23 07:14:54;;;;;;;10.20;2.30;;;11.80;99.90;;;;;;5001659;28;20023;-67
2023/05/23 07:17:21;;;;;;;4.63;2.10;;;11.80;99.90;;;;;;5001434;28;20034;-67
2023/05/23 07:19:47;;;;;;;14.10;3.55;;;11.80;99.90;;;;;;4999375;28;20366;-66
2023/05/23 07:22:13;;;;;;;5.60;1.70;;;11.90;99.90;;;;;;5011557;28;20109;-68
2023/05/23 07:24:38;;;;;;;8.77;2.00;;;11.90;99.90;;;;;;4989470;28;20068;-66
2023/05/23 07:27:05;;;;;;;12.90;1.90;;;12.10;99.90;;;;;;4995760;28;20035;-67
2023/05/23 07:29:31;;;;;;;4.90;1.58;;;12.10;99.90;;;;;;4988997;28;20026;-67
2023/05/23 07:31:58;;;;;;;3.90;1.30;;;12.10;99.90;;;;;;4990487;28;20489;-66
2023/05/23 07:34:25;;;;;;;7.70;1.42;;;12.20;99.90;;;;;;4998065;28;20025;-67
2023/05/23 07:36:51;;;;;;;14.55;2.00;;;12.40;99.90;;;;;;5001856;28;20022;-66
2023/05/23 07:39:20;;;;;;;11.30;2.20;;;12.40;99.90;;;;;;4999358;28;20169;-67
2023/05/23 07:41:47;;;;;;;10.27;2.10;;;12.30;99.90;;;;;;5006619;28;20355;-68
2023/05/23 07:44:12;;;;;;;13.30;2.20;;;12.40;99.90;;;;;;5004090;28;20030;-67
2023/05/23 07:46:38;;;;;;;15.90;2.60;;;12.30;99.90;;;;;;5001606;28;20034;-67
2023/05/23 07:49:04;;;;;;;14.67;2.77;;;12.50;99.90;;;;;;5002384;28;20368;-76
2023/05/23 07:51:29;;;;;;;14.57;2.43;;;12.40;99.90;;;;;;5006015;28;20058;-65
2023/05/23 07:53:55;;;;;;;7.67;1.80;;;12.50;99.90;;;;;;5010933;28;20045;-65
2023/05/23 07:56:21;;;;;;;5.80;1.27;;;12.70;99.90;;;;;;5003092;28;20022;-65
2023/05/23 07:58:47;;;;;;;17.80;2.03;;;12.80;99.90;;;;;;5003597;28;20445;-72
2023/05/23 08:01:13;;;;;;;7.07;1.60;;;12.70;99.90;;;;;;5016342;28;20029;-67
2023/05/23 08:03:39;;;;;;;12.97;2.87;;;12.60;99.90;;;;;;5007526;28;20172;-66
2023/05/23 08:06:06;;;;;;;17.77;2.00;;;12.50;99.90;;;;;;5007812;28;20739;-65
2023/05/23 08:08:32;;;;;;;12.63;2.72;;;12.60;99.90;;;;;;5007117;28;20125;-64
2023/05/23 08:10:58;;;;;;;11.57;1.45;;;12.70;99.90;;;;;;5015477;28;20104;-67
2023/05/23 08:13:23;;;;;;;11.60;2.30;;;12.70;99.90;;;;;;4996903;28;20353;-66
2023/05/23 08:15:49;;;;;;;15.87;2.57;;;12.60;99.90;;;;;;5006657;28;20041;-66
2023/05/23 08:18:15;;;;;;;11.97;2.30;;;12.60;99.90;;;;;;4994384;28;20118;-66
2023/05/23 08:20:42;;;;;;;6.65;2.42;;;12.60;99.90;;;;;;5002059;28;20022;-66
2023/05/23 08:23:07;;;;;;;9.18;2.17;;;12.60;99.90;;;;;;4997769;28;20042;-68
2023/05/23 08:25:33;;;;;;;10.97;2.30;;;12.80;99.90;;;;;;4997694;28;20026;-67
2023/05/23 08:28:00;;;;;;;3.50;1.20;;;12.90;99.90;;;;;;4999822;28;20134;-67
2023/05/23 08:30:26;;;;;;;12.25;2.53;;;13.20;99.90;;;;;;4993834;28;20031;-65
2023/05/23 08:32:54;;;;;;;8.63;2.33;;;13.50;99.90;;;;;;4997044;28;20031;-77
2023/05/23 08:35:20;;;;;;;7.90;1.83;;;13.60;99.90;;;;;;4999157;28;20022;-66
2023/05/23 08:37:47;;;;;;;1.73;1.52;;;13.20;99.90;;;;;;4998768;28;20597;-67
2023/05/23 08:40:21;;;;;;;2.90;0.88;;;13.00;99.90;;;;;;4999179;28;20049;-65
2023/05/23 08:42:48;;;;;;;21.50;3.17;;;12.80;99.90;;;;;;5012346;28;20026;-64
2023/05/23 08:45:15;;;;;;;8.13;1.55;;;12.90;99.90;;;;;;4999280;28;20042;-66
2023/05/23 08:47:41;;;;;;;;;;;13.10;99.90;;;;;;4996601;28;20038;-77
2023/05/23 08:50:09;;;;;;;4.38;1.95;;;13.40;99.90;;;;;;4993375;28;19914;-77
2023/05/23 08:52:39;;;;;;;9.43;2.10;;;13.40;99.90;;;;;;4989731;28;20030;-76
2023/05/23 08:55:05;;;;;;;12.70;2.60;;;13.40;99.90;;;;;;4991406;28;20041;-67
2023/05/23 08:57:32;;;;;;;12.30;2.25;;;13.20;99.90;;;;;;5002276;28;20022;-66
2023/05/23 08:59:59;;;;;;;;;;;13.10;99.90;;;;;;4998484;28;20058;-66
2023/05/23 09:02:25;;;;;;;15.95;2.13;;;13.10;99.90;;;;;;4988173;28;19914;-67
2023/05/23 09:04:52;;;;;;;14.37;2.60;;;13.20;99.90;;;;;;4987033;28;20077;-68
2023/05/23 09:07:18;;;;;;;7.85;1.88;;;13.20;99.90;;;;;;5005014;28;20085;-66
2023/05/23 09:09:44;;;;;;;14.95;3.15;;;13.20;99.90;;;;;;4992427;28;20418;-66
2023/05/23 09:12:12;;;;;;;6.60;1.70;;;13.30;99.90;;;;;;4989590;28;20029;-65
2023/05/23 09:14:38;;;;;;;7.32;1.73;;;13.60;99.90;;;;;;4984488;28;20046;-65
2023/05/23 09:17:04;;;;;;;20.57;2.90;;;14.00;99.90;;;;;;4993559;28;20088;-65
2023/05/23 09:19:30;;;;;;;6.32;1.58;;;13.90;99.90;;;;;;4992366;28;20058;-80
2023/05/23 09:21:55;;;;;;;4.73;2.00;;;13.80;99.90;;;;;;4986722;28;20058;-79
2023/05/23 09:24:21;;;;;;;4.53;1.00;;;13.50;99.90;;;;;;5008119;28;20030;-65
2023/05/23 09:26:47;;;;;;;10.67;2.40;;;13.20;99.90;;;;;;4996906;28;20032;-67
2023/05/23 09:29:13;;;;;;;8.27;1.17;;;13.30;99.90;;;;;;4997172;28;20042;-66
2023/05/23 09:31:39;;;;;;;9.07;1.97;;;13.10;99.90;;;;;;4990285;28;20034;-68
2023/05/23 09:34:05;;;;;;;3.23;1.83;;;13.10;99.90;;;;;;4988157;28;20771;-66
2023/05/23 09:36:35;;;;;;;8.38;1.90;;;13.40;99.90;;;;;;4996035;28;20105;-66
2023/05/23 09:39:06;;;;;;;10.30;2.60;;;13.50;99.90;;;;;;5001313;28;20022;-67
2023/05/23 09:41:34;;;;;;;11.02;1.88;;;13.40;99.90;;;;;;4997919;28;20030;-66
2023/05/23 09:44:07;;;;;;;7.00;1.90;;;13.30;99.90;;;;;;4984398;28;20718;-66
2023/05/23 09:46:36;;;;;;;12.30;2.63;;;13.40;99.90;;;;;;4985803;28;20220;-67
2023/05/23 09:49:13;;;;;;;7.38;2.15;;;13.40;99.90;;;;;;4987573;28;20478;-67
2023/05/23 09:51:39;;;;;;;0.38;0.38;;;13.30;99.90;;;;;;4992940;28;20037;-67
2023/05/23 09:54:05;;;;;;;7.70;2.23;;;13.50;99.90;;;;;;4988975;28;20026;-66
2023/05/23 09:56:33;;;;;;;11.37;2.23;;;13.80;99.90;;;;;;5002857;28;20402;-68
2023/05/23 09:59:00;;;;;;;9.20;2.15;;;13.90;99.90;;;;;;4988484;28;20066;-68
2023/05/23 10:01:27;;;;;;;12.70;1.98;;;14.10;99.90;;;;;;4989703;28;20102;-78
2023/05/23 10:03:56;;;;;;;7.70;2.00;;;14.20;99.90;;;;;;4988202;28;20018;-75
2023/05/23 10:06:43;;;;;;;14.27;2.22;;;13.90;99.90;;;;;;4989218;28;20038;-67
2023/05/23 10:09:16;;;;;;;1.08;0.98;;;13.50;99.90;;;;;;4990112;28;20058;-67
2023/05/23 10:12:19;;;;;;;8.02;2.13;;;13.40;99.90;;;;;;4989861;28;20366;-67
2023/05/23 10:14:56;;;;;;;10.85;2.63;;;13.40;99.90;;;;;;4995225;28;20030;-67
2023/05/23 10:17:47;;;;;;;10.77;2.28;;;13.40;99.90;;;;;;4994833;28;20140;-75
2023/05/23 10:20:16;;;;;;;8.10;2.45;;;13.30;99.90;;;;;;4986005;28;20026;-66
2023/05/23 10:22:42;;;;;;;10.25;2.97;;;13.30;99.90;;;;;;4982452;28;20035;-74
2023/05/23 10:25:09;;;;;;;27.67;3.20;;;13.40;99.90;;;;;;4985012;28;20038;-67
2023/05/23 10:27:37;;;;;;;10.57;1.88;;;13.60;99.90;;;;;;4992110;28;20033;-66
2023/05/23 10:30:05;;;;;;;14.48;2.33;;;13.50;99.90;;;;;;4993801;28;20058;-68
2023/05/23 10:32:32;;;;;;;5.82;1.70;;;13.50;99.90;;;;;;4992889;28;20104;-67
2023/05/23 10:35:07;;;;;;;7.57;1.17;;;13.40;99.90;;;;;;4990424;28;20022;-67
2023/05/23 10:38:12;;;;;;;12.98;2.38;;;13.30;99.90;;;;;;5008008;28;20475;-66
2023/05/23 10:40:51;;;;;;;8.25;1.92;;;13.30;99.90;;;;;;4994197;28;20463;-66
2023/05/23 10:43:33;;;;;;;10.27;2.47;;;13.30;99.90;;;;;;4991083;28;20030;-66
2023/05/23 10:46:00;;;;;;;8.57;1.90;;;13.40;99.90;;;;;;5010295;28;20107;-67
2023/05/23 10:48:34;;;;;;;8.23;1.70;;;13.60;99.90;;;;;;4993770;28;20027;-78
2023/05/23 10:51:04;;;;;;;7.90;1.42;;;13.90;99.90;;;;;;4986458;28;20436;-68
2023/05/23 10:53:34;;;;;;;6.82;1.65;;;14.00;99.90;;;;;;5009469;28;20070;-77
2023/05/23 10:56:03;;;;;;;12.32;2.15;;;14.00;99.90;;;;;;4983967;28;20481;-67
2023/05/23 10:58:30;;;;;;;7.90;2.08;;;14.10;99.90;;;;;;4988770;28;20026;-67
2023/05/23 11:01:04;;;;;;;8.88;1.98;;;14.00;99.90;;;;;;4988450;28;20038;-66
2023/05/23 11:03:35;;;;;;;9.98;2.17;;;14.00;99.90;;;;;;5000300;28;20334;-67
2023/05/23 11:06:04;;;;;;;6.97;1.60;;;13.90;99.90;;;;;;4992549;28;20417;-66
2023/05/23 11:08:40;;;;;;;11.63;2.08;;;13.90;99.90;;;;;;4990684;28;20333;-66
2023/05/23 11:11:07;;;;;;;;;;;13.90;99.90;;;;;;5001860;28;20019;-67
2023/05/23 11:13:52;;;;;;;;;;;13.90;99.90;;;;;;4987802;28;19926;-76
2023/05/23 11:16:25;;;;;;;17.23;2.75;;;13.60;99.90;;;;;;4982994;28;19968;-73
2023/05/23 11:18:51;;;;;;;8.27;2.00;;;13.60;99.90;;;;;;4986005;28;20326;-67
2023/05/23 11:21:20;;;;;;;14.82;2.45;;;13.70;99.90;;;;;;4987063;28;20085;-66
2023/05/23 11:23:46;;;;;;;11.50;2.38;;;13.90;99.90;;;;;;4990743;28;20031;-77
2023/05/23 11:26:58;;;;;;;8.40;1.83;;;14.10;99.90;;;;;;4988758;28;20410;-67
2023/05/23 11:29:27;;;;;;;10.68;1.98;;;14.50;99.90;;;;;;4984557;28;20562;-66
2023/05/23 11:31:55;;;;;;;7.88;1.98;;;14.50;99.90;;;;;;5014333;28;20035;-67
2023/05/23 11:34:22;;;;;;;12.57;2.17;;;14.50;99.90;;;;;;4994028;28;20033;-68
2023/05/23 11:36:55;;;;;;;9.30;2.50;;;14.20;99.90;;;;;;4993991;28;20069;-66
2023/05/23 11:39:22;;;;;;;9.30;2.13;;;14.20;99.90;;;;;;4994750;28;20083;-68
2023/05/23 11:42:01;;;;;;;9.27;1.88;;;14.20;99.90;;;;;;4995498;28;20706;-68
2023/05/23 11:44:27;;;;;;;6.10;1.77;;;14.20;99.90;;;;;;4986352;28;20774;-67
2023/05/23 11:47:03;;;;;;;14.10;2.03;;;14.50;99.90;;;;;;4988914;28;20030;-68
2023/05/23 11:49:30;;;;;;;11.27;1.98;;;14.20;99.90;;;;;;4989841;28;20322;-68
2023/05/23 11:51:56;;;;;;;;;;;14.00;99.90;;;;;;4987546;28;20066;-68
2023/05/23 11:54:26;;;;;;;9.32;2.38;;;14.30;99.90;;;;;;4986199;28;19910;-66
2023/05/23 11:56:53;;;;;;;8.82;2.08;;;14.20;99.90;;;;;;4999218;28;20034;-68
2023/05/23 11:59:20;;;;;;;9.00;1.85;;;14.00;99.90;;;;;;4993807;28;20022;-68
2023/05/23 12:01:46;;;;;;;20.80;2.83;;;13.70;99.90;;;;;;5003485;28;20113;-67
2023/05/23 12:04:12;;;;;;;9.47;2.10;;;13.80;99.90;;;;;;5002990;28;20375;-68
2023/05/23 12:06:40;;;;;;;10.20;2.20;;;14.20;99.90;;;;;;4989633;28;20113;-67
2023/05/23 12:09:10;;;;;;;17.02;1.88;;;14.30;99.90;;;;;;5000349;28;20029;-67
2023/05/23 12:11:38;;;;;;;6.47;1.48;;;14.20;99.90;;;;;;5007589;28;20081;-67
2023/05/23 12:14:07;;;;;;;15.07;2.22;;;14.20;99.90;;;;;;4999352;28;20018;-65
2023/05/23 12:16:35;;;;;;;10.60;2.13;;;14.60;99.90;;;;;;5001097;28;20042;-66
2023/05/23 12:19:05;;;;;;;9.50;2.25;;;14.50;99.90;;;;;;5020484;28;20361;-66
2023/05/23 12:22:07;;;;;;;12.27;2.22;;;14.40;99.90;;;;;;5006743;28;20316;-68
2023/05/23 12:24:33;;;;;;;6.90;1.45;;;14.50;99.90;;;;;;4953344;28;20031;-79
2023/05/23 12:27:01;;;;;;;9.52;1.67;;;14.40;99.90;;;;;;4958173;28;20034;-67
2023/05/23 12:29:35;;;;;;;17.17;2.35;;;14.40;99.90;;;;;;4975124;28;20041;-75
2023/05/23 12:32:03;;;;;;;18.90;2.40;;;14.50;99.90;;;;;;4973360;28;20326;-68
2023/05/23 12:34:29;;;;;;;13.40;2.05;;;14.60;99.90;;;;;;4964002;28;20039;-65
2023/05/23 12:37:02;;;;;;;9.63;2.15;;;14.50;99.90;;;;;;4970291;28;20026;-67
2023/05/23 12:39:29;;;;;;;10.48;1.95;;;14.40;99.90;;;;;;4975843;28;20393;-67
2023/05/23 12:42:05;;;;;;;;;;;14.50;99.90;;;;;;4975367;28;20047;-74
2023/05/23 12:44:31;;;;;;;;;;;14.60;99.90;;;;;;4975822;28;19906;-66
2023/05/23 12:46:58;;;;;;;13.88;2.60;;;14.60;99.90;;;;;;4974713;28;19963;-67